createdAt,value
2019-03-31T00:01:50.151Z,28.70
2019-03-31T00:06:45.016Z,30.77
2019-03-31T00:11:42.869Z,28.97
2019-03-31T00:16:41.547Z,30.30
2019-03-31T00:21:35.873Z,28.53
2019-03-31T00:26:32.257Z,30.63
2019-03-31T00:31:28.916Z,32.57
2019-03-31T00:36:23.252Z,25.20
2019-03-31T00:41:21.773Z,27.00
2019-03-31T00:46:17.278Z,29.67
2019-03-31T00:51:16.110Z,29.40
2019-03-31T00:56:11.409Z,28.63
2019-03-31T01:01:14.581Z,26.17
2019-03-31T01:06:12.360Z,31.83
2019-03-31T01:11:11.076Z,31.37
2019-03-31T01:16:09.106Z,27.37
2019-03-31T01:21:10.796Z,31.50
2019-03-31T01:26:10.103Z,30.03
2019-03-31T01:31:11.536Z,28.87
2019-03-31T01:36:13.964Z,28.33
2019-03-31T01:41:11.900Z,29.30
2019-03-31T01:46:11.408Z,28.93
2019-03-31T01:51:10.762Z,32.10
2019-03-31T01:56:17.687Z,28.60
2019-03-31T02:01:15.898Z,29.83
2019-03-31T02:06:12.648Z,28.83
2019-03-31T02:11:09.974Z,30.17
2019-03-31T02:16:10.578Z,32.20
2019-03-31T02:21:11.749Z,31.77
2019-03-31T02:26:20.428Z,28.37
2019-03-31T02:31:16.779Z,26.93
2019-03-31T02:36:13.825Z,28.07
2019-03-31T02:41:09.202Z,27.30
2019-03-31T02:46:08.203Z,30.30
2019-03-31T02:51:07.896Z,25.13
2019-03-31T02:56:08.436Z,27.87
2019-03-31T03:01:09.315Z,29.20
2019-03-31T03:06:10.335Z,31.93
2019-03-31T03:11:10.225Z,26.07
2019-03-31T03:16:10.928Z,28.43
2019-03-31T03:21:09.949Z,28.60
2019-03-31T03:26:15.391Z,27.47
2019-03-31T03:31:15.221Z,27.10
2019-03-31T03:36:10.137Z,28.23
2019-03-31T03:41:08.610Z,28.50
2019-03-31T03:46:09.006Z,30.23
2019-03-31T03:51:06.198Z,29.00
2019-03-31T03:56:05.632Z,29.90
2019-03-31T04:01:00.212Z,26.97
2019-03-31T04:05:56.841Z,28.83
2019-03-31T04:10:54.810Z,29.57
2019-03-31T04:15:50.346Z,28.43
2019-03-31T04:20:46.741Z,29.47
2019-03-31T04:25:41.914Z,27.03
2019-03-31T04:30:41.444Z,30.53
2019-03-31T04:35:37.368Z,28.93
2019-03-31T04:40:33.775Z,29.60
2019-03-31T04:45:29.113Z,33.80
2019-03-31T04:50:28.656Z,31.33
2019-03-31T04:55:23.435Z,26.40
2019-03-31T05:00:19.138Z,29.37
2019-03-31T05:05:18.922Z,28.50
2019-03-31T05:10:16.432Z,27.60
2019-03-31T05:15:16.151Z,23.33
2019-03-31T05:20:11.679Z,30.43
2019-03-31T05:25:09.124Z,29.17
2019-03-31T05:30:08.150Z,24.47
2019-03-31T05:35:11.604Z,28.10
2019-03-31T05:40:07.435Z,25.40
2019-03-31T05:45:09.329Z,28.00
2019-03-31T05:50:07.662Z,26.33
2019-03-31T05:55:04.286Z,23.10
2019-03-31T06:00:00.673Z,22.50
2019-03-31T06:04:58.817Z,18.20
2019-03-31T06:09:53.244Z,18.63
2019-03-31T06:14:48.326Z,20.70
2019-03-31T06:19:59.067Z,18.50
2019-03-31T06:25:00.338Z,21.33
2019-03-31T06:29:55.903Z,22.20
2019-03-31T06:34:50.727Z,20.30
2019-03-31T06:39:56.370Z,20.23
2019-03-31T06:44:54.673Z,21.57
2019-03-31T06:49:50.812Z,20.97
2019-03-31T06:54:47.465Z,21.17
2019-03-31T06:59:43.810Z,22.23
2019-03-31T07:04:44.152Z,23.93
2019-03-31T07:09:41.986Z,20.40
2019-03-31T07:14:37.753Z,20.03
2019-03-31T07:19:37.728Z,19.90
2019-03-31T07:24:32.276Z,17.83
2019-03-31T07:29:27.316Z,20.30
2019-03-31T07:34:30.257Z,18.07
2019-03-31T07:39:28.062Z,19.63
2019-03-31T07:44:25.091Z,19.83
2019-03-31T07:49:22.818Z,20.30
2019-03-31T07:54:20.017Z,16.17
2019-03-31T07:59:20.552Z,21.37
2019-03-31T08:04:16.217Z,24.97
2019-03-31T08:09:16.141Z,18.57
2019-03-31T08:14:12.567Z,19.43
2019-03-31T08:19:20.734Z,18.10
2019-03-31T08:24:16.037Z,26.67
2019-03-31T08:29:14.666Z,28.03
2019-03-31T08:34:10.978Z,20.97
2019-03-31T08:39:10.382Z,25.00
2019-03-31T08:44:06.931Z,27.87
2019-03-31T08:49:02.379Z,26.03
2019-03-31T08:54:03.686Z,29.03
2019-03-31T08:58:59.309Z,29.77
2019-03-31T09:03:55.419Z,32.43
2019-03-31T09:08:50.258Z,31.90
2019-03-31T09:13:48.821Z,34.63
2019-03-31T09:18:46.831Z,35.07
2019-03-31T09:23:43.706Z,37.70
2019-03-31T09:28:41.473Z,32.43
2019-03-31T09:33:39.200Z,36.87
2019-03-31T09:38:40.178Z,36.53
2019-03-31T09:43:37.035Z,35.13
2019-03-31T09:48:35.944Z,36.83
2019-03-31T09:53:33.262Z,35.60
2019-03-31T09:58:29.047Z,36.13
2019-03-31T10:03:48.760Z,38.13
2019-03-31T10:08:51.318Z,41.43
2019-03-31T10:13:48.113Z,40.37
2019-03-31T10:18:47.645Z,38.83
2019-03-31T10:23:46.659Z,43.07
2019-03-31T10:28:41.777Z,42.73
2019-03-31T10:33:37.343Z,41.80
2019-03-31T10:38:33.156Z,45.47
2019-03-31T10:43:28.074Z,47.17
2019-03-31T10:48:26.389Z,43.00
2019-03-31T10:53:23.039Z,44.83
2019-03-31T10:58:21.996Z,41.60
2019-03-31T11:03:21.080Z,39.67
2019-03-31T11:08:22.125Z,42.73
2019-03-31T11:13:20.815Z,39.87
2019-03-31T11:18:16.552Z,40.87
2019-03-31T11:23:19.905Z,38.77
2019-03-31T11:28:27.397Z,42.33
2019-03-31T11:33:26.350Z,45.87
2019-03-31T11:38:21.575Z,39.20
2019-03-31T11:43:24.606Z,43.83
2019-03-31T11:48:21.189Z,47.87
2019-03-31T11:53:15.447Z,52.03
2019-03-31T11:58:15.454Z,42.00
2019-03-31T12:03:14.387Z,51.63
2019-03-31T12:08:10.342Z,50.07
2019-03-31T12:13:11.317Z,41.27
2019-03-31T12:18:13.249Z,36.47
2019-03-31T12:23:11.115Z,43.93
2019-03-31T12:28:13.126Z,44.20
2019-03-31T12:33:11.224Z,50.00
2019-03-31T12:38:06.729Z,45.60
2019-03-31T12:43:22.518Z,31.73
2019-03-31T12:48:18.812Z,22.20
2019-03-31T12:53:17.277Z,28.60
2019-03-31T12:58:11.132Z,45.27
2019-03-31T13:03:07.423Z,21.90
2019-03-31T13:08:02.921Z,25.03
2019-03-31T13:13:00.135Z,61.87
2019-03-31T13:17:59.760Z,19.33
2019-03-31T13:23:02.240Z,33.63
2019-03-31T13:27:57.302Z,36.43
2019-03-31T13:32:53.775Z,34.73
2019-03-31T13:37:48.193Z,24.53
2019-03-31T13:42:49.494Z,27.50
2019-03-31T13:47:44.983Z,34.80
2019-03-31T13:52:41.271Z,32.13
2019-03-31T13:57:38.110Z,78.33
2019-03-31T14:02:33.306Z,29.03
2019-03-31T14:07:32.259Z,28.97
2019-03-31T14:12:34.089Z,55.90
2019-03-31T14:17:30.046Z,30.40
2019-03-31T14:22:28.519Z,32.40
2019-03-31T14:27:26.118Z,28.70
2019-03-31T14:32:22.173Z,27.30
2019-03-31T14:37:23.549Z,30.70
2019-03-31T14:42:22.305Z,30.70
2019-03-31T14:47:17.087Z,53.37
2019-03-31T14:52:26.627Z,27.97
2019-03-31T14:57:11.361Z,31.00
2019-03-31T15:02:07.227Z,30.73
2019-03-31T15:07:14.641Z,63.40
2019-03-31T15:12:12.968Z,40.07
2019-03-31T15:17:11.876Z,30.63
2019-03-31T15:22:06.421Z,29.17
2019-03-31T15:27:02.442Z,25.13
2019-03-31T15:32:05.267Z,28.70
2019-03-31T15:37:10.511Z,105.23
2019-03-31T15:42:13.615Z,44.93
2019-03-31T15:47:08.286Z,42.00
2019-03-31T15:52:05.007Z,38.30
2019-03-31T15:57:26.392Z,26.43
2019-03-31T16:02:26.153Z,26.43
2019-03-31T16:07:24.454Z,21.40
2019-03-31T16:12:23.403Z,13.37
2019-03-31T16:17:19.720Z,10.80
2019-03-31T16:22:19.850Z,83.50
2019-03-31T16:27:17.492Z,28.97
2019-03-31T16:32:14.408Z,26.67
2019-03-31T16:37:11.477Z,11.47
2019-03-31T16:42:10.246Z,16.33
2019-03-31T16:47:05.647Z,13.57
2019-03-31T16:52:07.124Z,12.23
2019-03-31T16:57:06.967Z,8.60
2019-03-31T17:02:05.250Z,16.47
2019-03-31T17:07:07.364Z,14.23
2019-03-31T17:12:05.697Z,9.00
2019-03-31T17:17:05.649Z,27.90
2019-03-31T17:22:04.418Z,39.33
2019-03-31T17:27:15.166Z,10.37
2019-03-31T17:32:09.750Z,6.77
2019-03-31T17:37:10.485Z,14.27
2019-03-31T17:42:10.569Z,8.30
2019-03-31T17:47:09.766Z,50.63
2019-03-31T17:52:08.459Z,8.20
2019-03-31T17:57:07.570Z,6.37
2019-03-31T18:02:05.975Z,5.10
2019-03-31T18:07:02.529Z,6.40
2019-03-31T18:12:05.507Z,8.20
2019-03-31T18:17:05.859Z,6.37
2019-03-31T18:22:17.149Z,7.77
2019-03-31T18:27:13.661Z,6.90
2019-03-31T18:32:10.077Z,12.00
2019-03-31T18:37:08.216Z,7.40
2019-03-31T18:42:08.822Z,10.93
2019-03-31T18:47:09.849Z,9.60
2019-03-31T18:52:07.058Z,11.13
2019-03-31T18:57:13.095Z,12.03
2019-03-31T19:02:15.059Z,9.63
2019-03-31T19:07:12.046Z,9.87
2019-03-31T19:12:12.164Z,9.73
2019-03-31T19:17:23.514Z,13.53
2019-03-31T19:22:24.546Z,12.73
2019-03-31T19:27:40.372Z,11.00
2019-03-31T19:32:54.018Z,7.87
2019-03-31T19:37:54.908Z,8.43
2019-03-31T19:42:53.699Z,9.70
2019-03-31T19:47:55.317Z,9.33
2019-03-31T19:53:09.167Z,8.93
2019-03-31T19:58:10.658Z,8.70
2019-03-31T20:03:15.563Z,8.60
2019-03-31T20:08:15.511Z,12.50
2019-03-31T20:13:29.638Z,11.20
2019-03-31T20:18:46.048Z,8.87
2019-03-31T20:23:45.596Z,8.43
2019-03-31T20:29:00.149Z,9.47
2019-03-31T20:34:01.003Z,9.67
2019-03-31T20:39:14.472Z,11.33
2019-03-31T20:44:09.924Z,9.43
2019-03-31T20:49:06.583Z,12.63
2019-03-31T20:54:02.851Z,15.97
2019-03-31T20:59:03.050Z,18.27
2019-03-31T21:04:03.136Z,19.10
2019-03-31T21:09:01.651Z,33.77
2019-03-31T21:13:57.419Z,13.53
2019-03-31T21:18:55.778Z,10.37
2019-03-31T21:23:54.963Z,12.90
2019-03-31T21:28:56.023Z,10.40
2019-03-31T21:33:51.049Z,9.63
2019-03-31T21:38:49.326Z,5.83
2019-03-31T21:43:47.234Z,8.63
2019-03-31T21:48:46.321Z,11.07
2019-03-31T21:53:46.147Z,8.63
2019-03-31T21:58:44.275Z,7.17
2019-03-31T22:03:42.049Z,8.23
2019-03-31T22:08:39.157Z,6.97
2019-03-31T22:13:35.272Z,9.17
2019-03-31T22:18:32.068Z,8.77
2019-03-31T22:23:57.388Z,5.83
2019-03-31T22:28:44.788Z,8.80
2019-03-31T22:33:40.285Z,12.87
2019-03-31T22:38:35.909Z,6.40
2019-03-31T22:43:46.897Z,10.57
2019-03-31T22:48:33.598Z,7.07
2019-03-31T22:53:31.997Z,6.77
2019-03-31T22:58:27.579Z,4.97
2019-03-31T23:03:23.561Z,7.03
2019-03-31T23:08:17.610Z,13.73
2019-03-31T23:13:16.425Z,6.83
2019-03-31T23:18:12.653Z,7.03
2019-03-31T23:23:09.351Z,7.27
2019-03-31T23:28:07.940Z,5.50
2019-03-31T23:33:06.868Z,6.70
2019-03-31T23:38:05.325Z,4.27
2019-03-31T23:43:04.261Z,5.33
2019-03-31T23:48:07.919Z,15.43
2019-03-31T23:53:07.675Z,8.47
2019-03-31T23:58:04.348Z,7.87
